sensor_id;sensor_type;location;lat;lon;timestamp;temperature;humidity
41756;DHT22;27435;48.480;9.258;2023-02-05T00:02:11;1.40;99.00
41756;DHT22;27435;48.480;9.258;2023-02-05T00:04:37;1.50;99.00
41756;DHT22;27435;48.480;9.258;2023-02-05T00:07:03;1.50;99.00
41756;DHT22;27435;48.480;9.258;2023-02-05T00:09:29;1.70;99.00
41756;DHT22;27435;48.480;9.258;2023-02-05T00:11:55;1.80;99.00
41756;DHT22;27435;48.480;9.258;2023-02-05T00:14:22;1.70;99.00
41756;DHT22;27435;48.480;9.258;2023-02-05T00:16:48;1.70;99.00
41756;DHT22;27435;48.480;9.258;2023-02-05T00:19:14;1.70;99.00
41756;DHT22;27435;48.480;9.258;2023-02-05T00:21:39;1.50;99.00
41756;DHT22;27435;48.480;9.258;2023-02-05T00:24:05;1.60;99.00
41756;DHT22;27435;48.480;9.258;2023-02-05T00:26:31;1.70;99.00
41756;DHT22;27435;48.480;9.258;2023-02-05T00:28:57;1.80;99.00
41756;DHT22;27435;48.480;9.258;2023-02-05T00:31:22;2.00;99.00
41756;DHT22;27435;48.480;9.258;2023-02-05T00:33:49;2.00;99.00
41756;DHT22;27435;48.480;9.258;2023-02-05T00:36:15;1.90;99.00
41756;DHT22;27435;48.480;9.258;2023-02-05T00:38:42;1.80;99.00
41756;DHT22;27435;48.480;9.258;2023-02-05T00:41:09;2.00;99.00
41756;DHT22;27435;48.480;9.258;2023-02-05T00:43:34;2.00;99.00
41756;DHT22;27435;48.480;9.258;2023-02-05T00:46:00;2.00;99.00
41756;DHT22;27435;48.480;9.258;2023-02-05T00:48:26;1.90;99.00
41756;DHT22;27435;48.480;9.258;2023-02-05T00:50:52;2.10;99.00
41756;DHT22;27435;48.480;9.258;2023-02-05T00:53:18;2.10;99.00
41756;DHT22;27435;48.480;9.258;2023-02-05T00:55:44;2.00;99.00
41756;DHT22;27435;48.480;9.258;2023-02-05T00:58:10;1.90;99.00
41756;DHT22;27435;48.480;9.258;2023-02-05T01:00:36;2.00;99.00
41756;DHT22;27435;48.480;9.258;2023-02-05T01:03:01;1.90;99.00
41756;DHT22;27435;48.480;9.258;2023-02-05T01:05:27;2.00;99.00
41756;DHT22;27435;48.480;9.258;2023-02-05T01:07:55;2.00;99.00
41756;DHT22;27435;48.480;9.258;2023-02-05T01:10:21;2.10;99.00
41756;DHT22;27435;48.480;9.258;2023-02-05T01:12:48;2.10;99.00
41756;DHT22;27435;48.480;9.258;2023-02-05T01:15:13;2.10;99.00
41756;DHT22;27435;48.480;9.258;2023-02-05T01:17:39;2.00;99.00
41756;DHT22;27435;48.480;9.258;2023-02-05T01:20:05;2.00;99.00
41756;DHT22;27435;48.480;9.258;2023-02-05T01:22:31;1.90;99.00
41756;DHT22;27435;48.480;9.258;2023-02-05T01:24:57;1.90;99.00
41756;DHT22;27435;48.480;9.258;2023-02-05T01:27:22;1.80;99.00
41756;DHT22;27435;48.480;9.258;2023-02-05T01:29:49;1.80;99.00
41756;DHT22;27435;48.480;9.258;2023-02-05T01:32:15;1.80;99.00
41756;DHT22;27435;48.480;9.258;2023-02-05T01:34:41;1.60;99.00
41756;DHT22;27435;48.480;9.258;2023-02-05T01:37:07;1.60;99.00
41756;DHT22;27435;48.480;9.258;2023-02-05T01:39:32;1.50;99.00
41756;DHT22;27435;48.480;9.258;2023-02-05T01:41:58;1.70;99.00
41756;DHT22;27435;48.480;9.258;2023-02-05T01:44:24;1.70;99.00
41756;DHT22;27435;48.480;9.258;2023-02-05T01:46:52;1.60;99.00
41756;DHT22;27435;48.480;9.258;2023-02-05T01:49:27;1.70;99.00
41756;DHT22;27435;48.480;9.258;2023-02-05T01:51:56;1.70;99.00
41756;DHT22;27435;48.480;9.258;2023-02-05T01:54:24;1.60;99.00
41756;DHT22;27435;48.480;9.258;2023-02-05T01:56:55;1.40;99.00
41756;DHT22;27435;48.480;9.258;2023-02-05T01:59:25;1.30;99.00
41756;DHT22;27435;48.480;9.258;2023-02-05T02:01:52;1.30;99.00
41756;DHT22;27435;48.480;9.258;2023-02-05T02:04:46;1.30;99.00
41756;DHT22;27435;48.480;9.258;2023-02-05T02:07:15;1.40;99.00
41756;DHT22;27435;48.480;9.258;2023-02-05T02:09:42;1.30;99.00
41756;DHT22;27435;48.480;9.258;2023-02-05T02:12:09;1.10;99.00
41756;DHT22;27435;48.480;9.258;2023-02-05T02:14:36;1.00;99.00
41756;DHT22;27435;48.480;9.258;2023-02-05T02:17:03;1.00;99.00
41756;DHT22;27435;48.480;9.258;2023-02-05T02:35:53;0.60;99.00
41756;DHT22;27435;48.480;9.258;2023-02-05T02:40:54;0.50;99.00
41756;DHT22;27435;48.480;9.258;2023-02-05T02:43:34;0.60;99.00
41756;DHT22;27435;48.480;9.258;2023-02-05T02:46:05;0.60;99.00
41756;DHT22;27435;48.480;9.258;2023-02-05T02:48:35;0.60;99.00
41756;DHT22;27435;48.480;9.258;2023-02-05T02:51:02;0.70;99.00
41756;DHT22;27435;48.480;9.258;2023-02-05T02:53:34;0.90;99.00
41756;DHT22;27435;48.480;9.258;2023-02-05T02:56:01;1.10;99.00
41756;DHT22;27435;48.480;9.258;2023-02-05T02:58:36;1.10;99.00
41756;DHT22;27435;48.480;9.258;2023-02-05T03:01:05;1.00;99.00
41756;DHT22;27435;48.480;9.258;2023-02-05T03:03:36;0.90;99.00
41756;DHT22;27435;48.480;9.258;2023-02-05T03:06:05;0.90;99.00
41756;DHT22;27435;48.480;9.258;2023-02-05T03:09:03;1.00;99.00
41756;DHT22;27435;48.480;9.258;2023-02-05T03:11:30;1.10;99.00
41756;DHT22;27435;48.480;9.258;2023-02-05T03:13:56;1.10;99.00
41756;DHT22;27435;48.480;9.258;2023-02-05T03:16:23;1.00;99.00
41756;DHT22;27435;48.480;9.258;2023-02-05T03:18:49;0.90;99.00
41756;DHT22;27435;48.480;9.258;2023-02-05T03:21:40;0.90;99.00
41756;DHT22;27435;48.480;9.258;2023-02-05T03:24:07;0.90;99.00
41756;DHT22;27435;48.480;9.258;2023-02-05T03:26:34;0.90;99.00
41756;DHT22;27435;48.480;9.258;2023-02-05T03:29:02;1.10;99.00
41756;DHT22;27435;48.480;9.258;2023-02-05T03:32:00;1.00;99.00
41756;DHT22;27435;48.480;9.258;2023-02-05T03:40:39;0.90;99.00
41756;DHT22;27435;48.480;9.258;2023-02-05T03:46:25;0.80;99.00
41756;DHT22;27435;48.480;9.258;2023-02-05T03:51:55;1.00;99.00
41756;DHT22;27435;48.480;9.258;2023-02-05T03:56:58;1.20;99.00
41756;DHT22;27435;48.480;9.258;2023-02-05T03:59:25;1.40;99.00
41756;DHT22;27435;48.480;9.258;2023-02-05T04:01:52;1.40;99.00
41756;DHT22;27435;48.480;9.258;2023-02-05T04:04:19;1.30;99.00
41756;DHT22;27435;48.480;9.258;2023-02-05T04:06:46;1.30;99.00
41756;DHT22;27435;48.480;9.258;2023-02-05T04:09:13;1.30;99.00
41756;DHT22;27435;48.480;9.258;2023-02-05T04:11:39;1.30;99.00
41756;DHT22;27435;48.480;9.258;2023-02-05T04:14:04;1.40;99.00
41756;DHT22;27435;48.480;9.258;2023-02-05T04:16:30;1.40;99.00
41756;DHT22;27435;48.480;9.258;2023-02-05T04:18:56;1.20;99.00
41756;DHT22;27435;48.480;9.258;2023-02-05T04:21:21;1.10;99.00
41756;DHT22;27435;48.480;9.258;2023-02-05T04:23:47;1.10;99.00
41756;DHT22;27435;48.480;9.258;2023-02-05T04:26:12;1.20;99.00
41756;DHT22;27435;48.480;9.258;2023-02-05T04:28:38;1.20;99.00
41756;DHT22;27435;48.480;9.258;2023-02-05T04:31:08;1.20;99.00
41756;DHT22;27435;48.480;9.258;2023-02-05T04:33:33;1.10;99.00
41756;DHT22;27435;48.480;9.258;2023-02-05T04:35:59;0.90;99.00
41756;DHT22;27435;48.480;9.258;2023-02-05T04:38:25;0.70;99.00
41756;DHT22;27435;48.480;9.258;2023-02-05T04:40:51;0.60;99.00
41756;DHT22;27435;48.480;9.258;2023-02-05T04:43:16;0.50;99.00
41756;DHT22;27435;48.480;9.258;2023-02-05T04:45:42;0.40;99.00
41756;DHT22;27435;48.480;9.258;2023-02-05T04:48:08;0.40;99.00
41756;DHT22;27435;48.480;9.258;2023-02-05T04:50:33;0.30;99.00
41756;DHT22;27435;48.480;9.258;2023-02-05T04:52:59;0.50;99.00
41756;DHT22;27435;48.480;9.258;2023-02-05T04:55:27;0.40;99.00
41756;DHT22;27435;48.480;9.258;2023-02-05T04:57:52;0.30;99.00
41756;DHT22;27435;48.480;9.258;2023-02-05T05:00:18;0.30;99.00
41756;DHT22;27435;48.480;9.258;2023-02-05T05:02:44;0.30;99.00
41756;DHT22;27435;48.480;9.258;2023-02-05T05:05:09;0.40;99.00
41756;DHT22;27435;48.480;9.258;2023-02-05T05:07:37;0.60;99.00
41756;DHT22;27435;48.480;9.258;2023-02-05T05:10:03;0.70;99.00
41756;DHT22;27435;48.480;9.258;2023-02-05T05:12:31;0.80;99.00
41756;DHT22;27435;48.480;9.258;2023-02-05T05:14:57;0.80;99.00
41756;DHT22;27435;48.480;9.258;2023-02-05T05:17:23;1.00;99.00
41756;DHT22;27435;48.480;9.258;2023-02-05T05:19:48;1.00;99.00
41756;DHT22;27435;48.480;9.258;2023-02-05T05:22:14;0.80;99.00
41756;DHT22;27435;48.480;9.258;2023-02-05T05:24:39;0.70;99.00
41756;DHT22;27435;48.480;9.258;2023-02-05T05:27:05;0.70;99.00
41756;DHT22;27435;48.480;9.258;2023-02-05T05:29:31;0.50;99.00
41756;DHT22;27435;48.480;9.258;2023-02-05T05:31:56;0.60;99.00
41756;DHT22;27435;48.480;9.258;2023-02-05T05:34:22;0.50;99.00
41756;DHT22;27435;48.480;9.258;2023-02-05T05:36:47;0.50;99.00
41756;DHT22;27435;48.480;9.258;2023-02-05T05:39:14;0.40;99.00
41756;DHT22;27435;48.480;9.258;2023-02-05T05:41:58;0.50;99.00
41756;DHT22;27435;48.480;9.258;2023-02-05T05:44:43;0.70;99.00
41756;DHT22;27435;48.480;9.258;2023-02-05T05:47:08;0.80;99.00
41756;DHT22;27435;48.480;9.258;2023-02-05T05:49:34;0.70;99.00
41756;DHT22;27435;48.480;9.258;2023-02-05T05:52:00;0.60;99.00
41756;DHT22;27435;48.480;9.258;2023-02-05T05:54:25;0.70;99.00
41756;DHT22;27435;48.480;9.258;2023-02-05T05:56:51;0.70;99.00
41756;DHT22;27435;48.480;9.258;2023-02-05T05:59:16;0.80;99.00
41756;DHT22;27435;48.480;9.258;2023-02-05T06:01:42;1.00;99.00
41756;DHT22;27435;48.480;9.258;2023-02-05T06:04:08;1.20;99.00
41756;DHT22;27435;48.480;9.258;2023-02-05T06:06:33;1.30;99.00
41756;DHT22;27435;48.480;9.258;2023-02-05T06:08:59;1.40;99.00
41756;DHT22;27435;48.480;9.258;2023-02-05T06:11:25;1.40;99.00
41756;DHT22;27435;48.480;9.258;2023-02-05T06:13:50;1.30;99.00
41756;DHT22;27435;48.480;9.258;2023-02-05T06:16:16;1.40;99.00
41756;DHT22;27435;48.480;9.258;2023-02-05T06:18:41;1.30;99.00
41756;DHT22;27435;48.480;9.258;2023-02-05T06:21:07;1.30;99.00
41756;DHT22;27435;48.480;9.258;2023-02-05T06:23:34;1.30;99.00
41756;DHT22;27435;48.480;9.258;2023-02-05T06:25:59;1.20;99.00
41756;DHT22;27435;48.480;9.258;2023-02-05T06:28:25;1.10;99.00
41756;DHT22;27435;48.480;9.258;2023-02-05T06:30:50;1.00;99.00
41756;DHT22;27435;48.480;9.258;2023-02-05T06:33:16;1.00;99.00
41756;DHT22;27435;48.480;9.258;2023-02-05T06:35:42;1.00;99.00
41756;DHT22;27435;48.480;9.258;2023-02-05T06:38:08;0.90;99.00
41756;DHT22;27435;48.480;9.258;2023-02-05T06:40:33;0.90;99.00
41756;DHT22;27435;48.480;9.258;2023-02-05T06:42:59;1.00;99.00
41756;DHT22;27435;48.480;9.258;2023-02-05T06:45:25;0.80;99.00
41756;DHT22;27435;48.480;9.258;2023-02-05T06:47:50;0.70;99.00
41756;DHT22;27435;48.480;9.258;2023-02-05T06:50:21;0.80;99.00
41756;DHT22;27435;48.480;9.258;2023-02-05T06:52:46;0.90;99.00
41756;DHT22;27435;48.480;9.258;2023-02-05T06:55:12;0.90;99.00
41756;DHT22;27435;48.480;9.258;2023-02-05T06:57:38;1.00;99.00
41756;DHT22;27435;48.480;9.258;2023-02-05T07:00:05;1.00;99.00
41756;DHT22;27435;48.480;9.258;2023-02-05T07:02:31;1.00;99.00
41756;DHT22;27435;48.480;9.258;2023-02-05T07:04:57;1.10;99.00
41756;DHT22;27435;48.480;9.258;2023-02-05T07:07:22;1.00;99.00
41756;DHT22;27435;48.480;9.258;2023-02-05T07:09:48;1.00;99.00
41756;DHT22;27435;48.480;9.258;2023-02-05T07:12:13;1.20;99.00
41756;DHT22;27435;48.480;9.258;2023-02-05T07:14:40;1.30;99.00
41756;DHT22;27435;48.480;9.258;2023-02-05T07:17:07;1.50;99.00
41756;DHT22;27435;48.480;9.258;2023-02-05T07:19:33;1.60;99.00
41756;DHT22;27435;48.480;9.258;2023-02-05T07:21:59;1.60;99.00
41756;DHT22;27435;48.480;9.258;2023-02-05T07:24:24;1.60;99.00
41756;DHT22;27435;48.480;9.258;2023-02-05T07:26:50;1.70;99.00
41756;DHT22;27435;48.480;9.258;2023-02-05T07:29:16;1.70;99.00
41756;DHT22;27435;48.480;9.258;2023-02-05T07:31:41;1.90;99.00
41756;DHT22;27435;48.480;9.258;2023-02-05T07:34:07;2.10;99.00
41756;DHT22;27435;48.480;9.258;2023-02-05T07:36:33;2.20;99.00
41756;DHT22;27435;48.480;9.258;2023-02-05T07:38:58;2.20;99.00
41756;DHT22;27435;48.480;9.258;2023-02-05T07:41:24;2.40;99.00
41756;DHT22;27435;48.480;9.258;2023-02-05T07:43:53;2.30;99.00
41756;DHT22;27435;48.480;9.258;2023-02-05T07:46:20;2.50;99.00
41756;DHT22;27435;48.480;9.258;2023-02-05T07:48:46;2.60;99.00
41756;DHT22;27435;48.480;9.258;2023-02-05T07:51:19;2.60;99.00
41756;DHT22;27435;48.480;9.258;2023-02-05T07:53:46;2.60;99.00
41756;DHT22;27435;48.480;9.258;2023-02-05T07:56:11;2.40;99.00
41756;DHT22;27435;48.480;9.258;2023-02-05T07:58:38;2.20;99.00
41756;DHT22;27435;48.480;9.258;2023-02-05T08:01:04;2.20;99.00
41756;DHT22;27435;48.480;9.258;2023-02-05T08:03:30;2.30;99.00
41756;DHT22;27435;48.480;9.258;2023-02-05T08:05:56;2.50;99.00
41756;DHT22;27435;48.480;9.258;2023-02-05T08:08:22;2.60;99.00
41756;DHT22;27435;48.480;9.258;2023-02-05T08:10:54;2.80;99.00
41756;DHT22;27435;48.480;9.258;2023-02-05T08:13:20;2.90;99.00
41756;DHT22;27435;48.480;9.258;2023-02-05T08:15:46;2.90;99.00
41756;DHT22;27435;48.480;9.258;2023-02-05T08:18:11;2.60;99.00
41756;DHT22;27435;48.480;9.258;2023-02-05T08:24:13;2.60;99.00
41756;DHT22;27435;48.480;9.258;2023-02-05T08:26:38;2.40;99.00
41756;DHT22;27435;48.480;9.258;2023-02-05T08:29:04;2.40;99.00
41756;DHT22;27435;48.480;9.258;2023-02-05T08:31:54;2.50;99.00
41756;DHT22;27435;48.480;9.258;2023-02-05T08:34:31;2.50;99.00
41756;DHT22;27435;48.480;9.258;2023-02-05T08:37:03;2.70;99.00
41756;DHT22;27435;48.480;9.258;2023-02-05T08:39:29;2.70;99.00
41756;DHT22;27435;48.480;9.258;2023-02-05T08:41:54;2.60;99.00
41756;DHT22;27435;48.480;9.258;2023-02-05T08:44:20;2.60;99.00
41756;DHT22;27435;48.480;9.258;2023-02-05T08:46:45;2.80;99.00
41756;DHT22;27435;48.480;9.258;2023-02-05T08:49:11;2.70;99.00
41756;DHT22;27435;48.480;9.258;2023-02-05T08:51:36;3.00;99.00
41756;DHT22;27435;48.480;9.258;2023-02-05T08:54:02;3.10;99.00
41756;DHT22;27435;48.480;9.258;2023-02-05T08:56:30;3.30;99.00
41756;DHT22;27435;48.480;9.258;2023-02-05T08:58:56;3.40;99.00
41756;DHT22;27435;48.480;9.258;2023-02-05T09:01:22;3.50;99.00
41756;DHT22;27435;48.480;9.258;2023-02-05T09:03:48;3.60;99.00
41756;DHT22;27435;48.480;9.258;2023-02-05T09:06:14;3.70;99.00
41756;DHT22;27435;48.480;9.258;2023-02-05T09:08:41;3.70;99.00
41756;DHT22;27435;48.480;9.258;2023-02-05T09:11:07;3.90;99.00
41756;DHT22;27435;48.480;9.258;2023-02-05T09:13:33;4.10;99.00
41756;DHT22;27435;48.480;9.258;2023-02-05T09:15:58;4.20;99.00
41756;DHT22;27435;48.480;9.258;2023-02-05T09:18:24;4.10;99.00
41756;DHT22;27435;48.480;9.258;2023-02-05T09:20:50;4.40;99.00
41756;DHT22;27435;48.480;9.258;2023-02-05T09:23:17;4.70;99.00
41756;DHT22;27435;48.480;9.258;2023-02-05T09:25:43;4.90;99.00
41756;DHT22;27435;48.480;9.258;2023-02-05T09:28:11;5.20;99.00
41756;DHT22;27435;48.480;9.258;2023-02-05T09:30:39;5.50;99.00
41756;DHT22;27435;48.480;9.258;2023-02-05T09:33:05;5.60;99.00
41756;DHT22;27435;48.480;9.258;2023-02-05T09:35:32;5.60;99.00
41756;DHT22;27435;48.480;9.258;2023-02-05T09:37:58;5.70;99.00
41756;DHT22;27435;48.480;9.258;2023-02-05T09:40:28;5.80;99.00
41756;DHT22;27435;48.480;9.258;2023-02-05T09:43:23;5.60;98.60
41756;DHT22;27435;48.480;9.258;2023-02-05T09:46:02;5.60;96.70
41756;DHT22;27435;48.480;9.258;2023-02-05T09:48:43;5.50;97.20
41756;DHT22;27435;48.480;9.258;2023-02-05T09:51:19;5.50;97.40
41756;DHT22;27435;48.480;9.258;2023-02-05T09:53:56;5.20;98.20
41756;DHT22;27435;48.480;9.258;2023-02-05T09:56:26;5.00;99.00
41756;DHT22;27435;48.480;9.258;2023-02-05T09:58:53;5.10;99.00
41756;DHT22;27435;48.480;9.258;2023-02-05T10:01:35;5.40;98.40
41756;DHT22;27435;48.480;9.258;2023-02-05T10:04:03;5.50;98.80
41756;DHT22;27435;48.480;9.258;2023-02-05T10:12:04;5.00;98.80
41756;DHT22;27435;48.480;9.258;2023-02-05T10:17:54;4.60;99.00
41756;DHT22;27435;48.480;9.258;2023-02-05T10:23:16;4.30;99.00
41756;DHT22;27435;48.480;9.258;2023-02-05T10:31:41;4.00;99.00
41756;DHT22;27435;48.480;9.258;2023-02-05T10:37:05;3.90;99.00
41756;DHT22;27435;48.480;9.258;2023-02-05T10:39:31;3.70;99.00
41756;DHT22;27435;48.480;9.258;2023-02-05T10:42:19;3.70;99.00
41756;DHT22;27435;48.480;9.258;2023-02-05T10:44:48;3.90;99.00
41756;DHT22;27435;48.480;9.258;2023-02-05T10:47:37;4.00;99.00
41756;DHT22;27435;48.480;9.258;2023-02-05T10:53:06;3.70;99.00
41756;DHT22;27435;48.480;9.258;2023-02-05T10:55:32;3.50;99.00
41756;DHT22;27435;48.480;9.258;2023-02-05T10:57:59;3.50;99.00
41756;DHT22;27435;48.480;9.258;2023-02-05T11:00:26;3.40;99.00
41756;DHT22;27435;48.480;9.258;2023-02-05T11:02:53;3.40;99.00
41756;DHT22;27435;48.480;9.258;2023-02-05T11:05:33;3.40;99.00
41756;DHT22;27435;48.480;9.258;2023-02-05T11:08:00;3.40;99.00
41756;DHT22;27435;48.480;9.258;2023-02-05T11:10:28;3.40;99.00
41756;DHT22;27435;48.480;9.258;2023-02-05T11:13:03;3.40;99.00
41756;DHT22;27435;48.480;9.258;2023-02-05T11:16:07;3.30;99.00
41756;DHT22;27435;48.480;9.258;2023-02-05T11:18:43;3.00;99.00
41756;DHT22;27435;48.480;9.258;2023-02-05T11:21:10;3.00;99.00
41756;DHT22;27435;48.480;9.258;2023-02-05T11:23:37;3.00;99.00
41756;DHT22;27435;48.480;9.258;2023-02-05T11:26:17;3.10;99.00
41756;DHT22;27435;48.480;9.258;2023-02-05T11:28:44;2.90;99.00
41756;DHT22;27435;48.480;9.258;2023-02-05T11:31:32;3.10;99.00
41756;DHT22;27435;48.480;9.258;2023-02-05T11:36:37;3.40;99.00
41756;DHT22;27435;48.480;9.258;2023-02-05T11:39:04;3.50;99.00
41756;DHT22;27435;48.480;9.258;2023-02-05T11:41:38;3.40;99.00
41756;DHT22;27435;48.480;9.258;2023-02-05T11:44:26;3.50;99.00
41756;DHT22;27435;48.480;9.258;2023-02-05T11:46:54;3.50;99.00
41756;DHT22;27435;48.480;9.258;2023-02-05T11:49:36;3.40;99.00
41756;DHT22;27435;48.480;9.258;2023-02-05T11:52:11;3.50;99.00
41756;DHT22;27435;48.480;9.258;2023-02-05T11:54:38;3.60;99.00
41756;DHT22;27435;48.480;9.258;2023-02-05T12:02:32;3.70;99.00
41756;DHT22;27435;48.480;9.258;2023-02-05T12:05:18;3.80;99.00
41756;DHT22;27435;48.480;9.258;2023-02-05T12:07:46;3.90;99.00
41756;DHT22;27435;48.480;9.258;2023-02-05T12:13:08;3.70;99.00
41756;DHT22;27435;48.480;9.258;2023-02-05T12:16:34;3.60;99.00
41756;DHT22;27435;48.480;9.258;2023-02-05T12:21:25;3.50;99.00
41756;DHT22;27435;48.480;9.258;2023-02-05T12:37:37;3.50;99.00
41756;DHT22;27435;48.480;9.258;2023-02-05T12:43:33;3.40;99.00
41756;DHT22;27435;48.480;9.258;2023-02-05T12:54:44;3.80;99.00
41756;DHT22;27435;48.480;9.258;2023-02-05T12:57:18;3.70;99.00
41756;DHT22;27435;48.480;9.258;2023-02-05T13:00:04;3.70;99.00
41756;DHT22;27435;48.480;9.258;2023-02-05T13:02:52;3.70;99.00
41756;DHT22;27435;48.480;9.258;2023-02-05T13:05:29;3.80;99.00
41756;DHT22;27435;48.480;9.258;2023-02-05T13:08:11;3.90;99.00
41756;DHT22;27435;48.480;9.258;2023-02-05T13:13:30;3.80;99.00
41756;DHT22;27435;48.480;9.258;2023-02-05T13:16:04;3.80;99.00
41756;DHT22;27435;48.480;9.258;2023-02-05T13:18:37;3.90;99.00
41756;DHT22;27435;48.480;9.258;2023-02-05T13:21:07;3.90;99.00
41756;DHT22;27435;48.480;9.258;2023-02-05T13:24:48;3.90;99.00
41756;DHT22;27435;48.480;9.258;2023-02-05T13:27:25;3.80;99.00
41756;DHT22;27435;48.480;9.258;2023-02-05T13:30:17;3.90;99.00
41756;DHT22;27435;48.480;9.258;2023-02-05T13:32:47;3.80;99.00
41756;DHT22;27435;48.480;9.258;2023-02-05T13:35:14;3.60;99.00
41756;DHT22;27435;48.480;9.258;2023-02-05T13:37:59;3.50;99.00
41756;DHT22;27435;48.480;9.258;2023-02-05T13:43:15;3.30;99.00
41756;DHT22;27435;48.480;9.258;2023-02-05T13:48:47;3.50;99.00
41756;DHT22;27435;48.480;9.258;2023-02-05T13:57:02;3.40;99.00
41756;DHT22;27435;48.480;9.258;2023-02-05T13:59:37;3.30;99.00
41756;DHT22;27435;48.480;9.258;2023-02-05T14:02:34;3.20;99.00
41756;DHT22;27435;48.480;9.258;2023-02-05T14:05:02;3.00;99.00
41756;DHT22;27435;48.480;9.258;2023-02-05T14:07:45;2.90;99.00
41756;DHT22;27435;48.480;9.258;2023-02-05T14:10:35;2.90;99.00
41756;DHT22;27435;48.480;9.258;2023-02-05T14:13:12;2.90;99.00
41756;DHT22;27435;48.480;9.258;2023-02-05T14:15:43;2.90;99.00
41756;DHT22;27435;48.480;9.258;2023-02-05T14:26:49;2.70;99.00
41756;DHT22;27435;48.480;9.258;2023-02-05T14:29:38;2.70;99.00
41756;DHT22;27435;48.480;9.258;2023-02-05T14:32:06;2.60;99.00
41756;DHT22;27435;48.480;9.258;2023-02-05T14:36:59;2.70;99.00
41756;DHT22;27435;48.480;9.258;2023-02-05T14:39:28;2.60;99.00
41756;DHT22;27435;48.480;9.258;2023-02-05T14:41:57;2.50;99.00
41756;DHT22;27435;48.480;9.258;2023-02-05T14:44:36;2.50;99.00
41756;DHT22;27435;48.480;9.258;2023-02-05T14:47:22;2.40;99.00
41756;DHT22;27435;48.480;9.258;2023-02-05T14:49:51;2.40;99.00
41756;DHT22;27435;48.480;9.258;2023-02-05T14:52:31;2.60;99.00
41756;DHT22;27435;48.480;9.258;2023-02-05T14:55:07;2.70;99.00
41756;DHT22;27435;48.480;9.258;2023-02-05T14:57:52;2.70;99.00
41756;DHT22;27435;48.480;9.258;2023-02-05T15:00:26;2.70;99.00
41756;DHT22;27435;48.480;9.258;2023-02-05T15:08:13;2.40;99.00
41756;DHT22;27435;48.480;9.258;2023-02-05T15:10:50;2.20;99.00
41756;DHT22;27435;48.480;9.258;2023-02-05T15:13:19;2.20;99.00
41756;DHT22;27435;48.480;9.258;2023-02-05T15:16:14;1.90;99.00
41756;DHT22;27435;48.480;9.258;2023-02-05T15:21:23;2.10;99.00
41756;DHT22;27435;48.480;9.258;2023-02-05T15:24:00;2.30;99.00
41756;DHT22;27435;48.480;9.258;2023-02-05T15:29:34;2.50;99.00
41756;DHT22;27435;48.480;9.258;2023-02-05T15:32:13;2.40;99.00
41756;DHT22;27435;48.480;9.258;2023-02-05T15:34:50;2.40;99.00
41756;DHT22;27435;48.480;9.258;2023-02-05T15:37:27;2.40;99.00
41756;DHT22;27435;48.480;9.258;2023-02-05T15:43:00;2.30;99.00
41756;DHT22;27435;48.480;9.258;2023-02-05T15:45:34;2.10;99.00
41756;DHT22;27435;48.480;9.258;2023-02-05T15:55:56;2.40;99.00
41756;DHT22;27435;48.480;9.258;2023-02-05T15:58:24;2.30;99.00
41756;DHT22;27435;48.480;9.258;2023-02-05T16:00:50;2.10;99.00
41756;DHT22;27435;48.480;9.258;2023-02-05T16:03:29;2.10;99.00
41756;DHT22;27435;48.480;9.258;2023-02-05T16:05:58;1.90;99.00
41756;DHT22;27435;48.480;9.258;2023-02-05T16:08:23;1.80;99.00
41756;DHT22;27435;48.480;9.258;2023-02-05T16:10:57;1.80;99.00
41756;DHT22;27435;48.480;9.258;2023-02-05T16:13:24;1.70;99.00
41756;DHT22;27435;48.480;9.258;2023-02-05T16:16:06;1.80;99.00
41756;DHT22;27435;48.480;9.258;2023-02-05T16:18:48;1.90;99.00
41756;DHT22;27435;48.480;9.258;2023-02-05T16:21:39;1.70;99.00
41756;DHT22;27435;48.480;9.258;2023-02-05T16:24:33;1.80;99.00
41756;DHT22;27435;48.480;9.258;2023-02-05T16:27:14;1.70;99.00
41756;DHT22;27435;48.480;9.258;2023-02-05T16:29:49;1.70;99.00
41756;DHT22;27435;48.480;9.258;2023-02-05T16:32:29;1.70;99.00
41756;DHT22;27435;48.480;9.258;2023-02-05T16:34:58;1.80;99.00
41756;DHT22;27435;48.480;9.258;2023-02-05T16:37:28;1.90;99.00
41756;DHT22;27435;48.480;9.258;2023-02-05T16:39:56;2.00;99.00
41756;DHT22;27435;48.480;9.258;2023-02-05T16:47:28;2.00;99.00
41756;DHT22;27435;48.480;9.258;2023-02-05T16:49:53;2.00;99.00
41756;DHT22;27435;48.480;9.258;2023-02-05T16:52:45;2.10;99.00
41756;DHT22;27435;48.480;9.258;2023-02-05T16:57:52;2.20;99.00
41756;DHT22;27435;48.480;9.258;2023-02-05T17:00:25;2.10;99.00
41756;DHT22;27435;48.480;9.258;2023-02-05T17:02:54;2.10;99.00
41756;DHT22;27435;48.480;9.258;2023-02-05T17:05:30;2.00;99.00
41756;DHT22;27435;48.480;9.258;2023-02-05T17:08:03;2.10;99.00
41756;DHT22;27435;48.480;9.258;2023-02-05T17:10:30;2.10;99.00
41756;DHT22;27435;48.480;9.258;2023-02-05T17:12:56;2.10;99.00
41756;DHT22;27435;48.480;9.258;2023-02-05T17:15:31;2.10;99.00
41756;DHT22;27435;48.480;9.258;2023-02-05T17:18:18;2.00;99.00
41756;DHT22;27435;48.480;9.258;2023-02-05T17:20:44;2.00;99.00
41756;DHT22;27435;48.480;9.258;2023-02-05T17:23:12;2.00;99.00
41756;DHT22;27435;48.480;9.258;2023-02-05T17:25:53;1.80;99.00
41756;DHT22;27435;48.480;9.258;2023-02-05T17:28:27;1.70;99.00
41756;DHT22;27435;48.480;9.258;2023-02-05T17:30:55;1.80;99.00
41756;DHT22;27435;48.480;9.258;2023-02-05T17:33:26;1.80;99.00
41756;DHT22;27435;48.480;9.258;2023-02-05T17:35:52;1.90;99.00
41756;DHT22;27435;48.480;9.258;2023-02-05T17:38:19;1.90;99.00
41756;DHT22;27435;48.480;9.258;2023-02-05T17:40:45;2.00;99.00
41756;DHT22;27435;48.480;9.258;2023-02-05T17:43:11;1.90;99.00
41756;DHT22;27435;48.480;9.258;2023-02-05T17:45:39;2.00;99.00
41756;DHT22;27435;48.480;9.258;2023-02-05T17:48:06;2.00;99.00
41756;DHT22;27435;48.480;9.258;2023-02-05T17:50:33;2.00;99.00
41756;DHT22;27435;48.480;9.258;2023-02-05T17:53:00;2.00;99.00
41756;DHT22;27435;48.480;9.258;2023-02-05T17:55:25;2.00;99.00
41756;DHT22;27435;48.480;9.258;2023-02-05T17:57:51;1.80;99.00
41756;DHT22;27435;48.480;9.258;2023-02-05T18:00:20;1.90;99.00
41756;DHT22;27435;48.480;9.258;2023-02-05T18:02:47;1.90;99.00
41756;DHT22;27435;48.480;9.258;2023-02-05T18:05:12;1.80;99.00
41756;DHT22;27435;48.480;9.258;2023-02-05T18:07:43;1.60;99.00
41756;DHT22;27435;48.480;9.258;2023-02-05T18:10:22;1.60;99.00
41756;DHT22;27435;48.480;9.258;2023-02-05T18:12:49;1.80;99.00
41756;DHT22;27435;48.480;9.258;2023-02-05T18:15:15;1.80;99.00
41756;DHT22;27435;48.480;9.258;2023-02-05T18:17:41;1.90;99.00
41756;DHT22;27435;48.480;9.258;2023-02-05T18:20:08;1.90;99.00
41756;DHT22;27435;48.480;9.258;2023-02-05T18:22:33;2.00;99.00
41756;DHT22;27435;48.480;9.258;2023-02-05T18:24:59;2.00;99.00
41756;DHT22;27435;48.480;9.258;2023-02-05T18:27:25;1.80;99.00
41756;DHT22;27435;48.480;9.258;2023-02-05T18:29:51;1.90;99.00
41756;DHT22;27435;48.480;9.258;2023-02-05T18:32:17;2.00;99.00
41756;DHT22;27435;48.480;9.258;2023-02-05T18:34:43;2.10;99.00
41756;DHT22;27435;48.480;9.258;2023-02-05T18:37:08;1.90;99.00
41756;DHT22;27435;48.480;9.258;2023-02-05T18:39:34;1.80;99.00